Muskoka Airport
CYQA : rendu visible

Aérodrome :











RETROUVEZ-NOUS SUR...

 
LOGIN :

S'inscrire | Disclaimer

   EN    FR    IT 

 









Légende :    VFR   VFR Marginal   IFR   IFR Intensif   IFR Très Intensif
Visi : 
Plafond : 
>= 8 km
>= 3000ft
5 à 8 km
1000 à 3000 ft
1500m à 5 km
500 à 1000 ft
800 à 1500m
200 à 500 ft
< 800m
< 200 ft
Symboles :   Orages  Brouillard  Fortes neiges  Fortes précipitations  Vent > 20 kt






- Altitude de l'aérodrome : 925 ft
- Code IATA : YQA


CYQA - Muskoka

DERNIER METAR :
  • 070057Z AUTO 20003KT 1 1/2SM -SN BKN025 OVC030 M06/M08 A3011 RMK SLP216

METARs EXPIRÉS :
  • 070042Z AUTO 21002KT 2SM -SN OVC027 M07/M08 A3011 RMK VIS VRB 1 1/2-3 SLP216
  • 070035Z AUTO 18002KT 3SM -SN OVC029 M07/M09 A3010 RMK SLP214
  • 070028Z AUTO VRB02KT 2 1/4SM -SN OVC031 M07/M09 A3010 RMK SLP213
  • 070014Z AUTO 00000KT 9SM -SN BKN039 OVC055 M07/M09 A3010 RMK SLP212
  • 070001Z AUTO 00000KT 9SM -SN OVC055 M08/M10 A3009 RMK SLP210
  • 062316Z AUTO VRB04KT 9SM FEW048 BKN055 M07/M09 A3008 RMK SLP206
  • 062255Z AUTO 07004KT 350V080 9SM -SN BKN050 OVC055 M06/M08 A3007 RMK SLP201
  • 062242Z AUTO 00000KT 9SM OVC050 M06/M09 A3008 RMK SLP205
  • 062232Z AUTO VRB02KT 9SM -SN OVC050 M06/M09 A3008 RMK SLP204
  • 062200Z AUTO 32002KT 9SM BKN050 M06/M09 A3007 RMK SLP202

TAF AMD TAF CYQA
Valide du 07 à 00h jusqu'au 07 à 03h UTC


070044Z 0700/0703 VRB03KT 11/2SM -SN OVC015
TEMPO 0700/0703 6SM -SN OVC025 RMK FCST BASED ON AUTO OBS. NXT FCST WILL BE ISSUED AT 071245Z



MET'MAP, la Météo Aéronautique d'un coup d'oeil ! - Copyright ORBIFLY Décembre 2007 - Disclaimer

ORBIFLY MET'MAP TEAM :

Programmation & Développement : Alexandra Zaïnal
Sur une idée originale de : Baudouin d'Aumeries
Assistance à la programmation : Marc-Olivier Méhu
Soutien technique & logistique : Manuel Goepfert

Contact : metmap@orbifly.com




SOURCES & CREDITS :

   NOAA       Earth
Advisory